createdAt,value
2022-11-21T00:01:15.976Z,99183.91
2022-11-21T00:03:43.581Z,99169.22
2022-11-21T00:06:10.741Z,99168.97
2022-11-21T00:08:38.238Z,99175.91
2022-11-21T00:11:05.343Z,99182.03
2022-11-21T00:13:32.843Z,99186.34
2022-11-21T00:16:07.062Z,99180.59
2022-11-21T00:18:35.519Z,99192.75
2022-11-21T00:21:07.506Z,99197.84
2022-11-21T00:23:35.159Z,99178.91
2022-11-21T00:26:10.004Z,99188.69
2022-11-21T00:28:37.884Z,99188.72
2022-11-21T00:31:06.022Z,99202.16
2022-11-21T00:33:36.676Z,99196.91
2022-11-21T00:36:08.699Z,99209.13
2022-11-21T00:38:36.667Z,99214.03
2022-11-21T00:41:04.306Z,99229.44
2022-11-21T00:43:32.286Z,99224.94
2022-11-21T00:46:01.485Z,99221.75
2022-11-21T00:48:30.042Z,99218.66
2022-11-21T00:50:57.492Z,99227.22
2022-11-21T00:53:24.882Z,99221.94
2022-11-21T00:55:52.033Z,99221.84
2022-11-21T00:58:19.475Z,99234.47
2022-11-21T01:00:46.778Z,99217.25
2022-11-21T01:03:14.412Z,99225.25
2022-11-21T01:05:41.563Z,99233.63
2022-11-21T01:08:09.035Z,99227.03
2022-11-21T01:10:36.657Z,99222.22
2022-11-21T01:13:04.191Z,99218.78
2022-11-21T01:15:31.299Z,99221.25
2022-11-21T01:17:58.737Z,99202.94
2022-11-21T01:20:26.054Z,99203.06
2022-11-21T01:22:54.575Z,99196.94
2022-11-21T01:25:21.739Z,99201.56
2022-11-21T01:27:49.157Z,99187.47
2022-11-21T01:30:17.436Z,99207.31
2022-11-21T01:32:48.454Z,99205.75
2022-11-21T01:35:16.013Z,99200.59
2022-11-21T01:37:43.465Z,99189.47
2022-11-21T01:40:11.607Z,99193.69
2022-11-21T01:43:15.226Z,99201.69
2022-11-21T01:45:58.410Z,99193.03
2022-11-21T01:48:53.665Z,99212.97
2022-11-21T01:51:25.112Z,99203.06
2022-11-21T01:54:08.954Z,99201.16
2022-11-21T01:56:47.243Z,99210.44
2022-11-21T01:59:21.394Z,99199.75
2022-11-21T02:01:52.045Z,99220.50
2022-11-21T02:04:22.496Z,99207.13
2022-11-21T02:06:49.668Z,99203.28
2022-11-21T02:09:18.269Z,99206.41
2022-11-21T02:11:52.574Z,99214.00
2022-11-21T02:14:20.124Z,99206.59
2022-11-21T02:16:47.559Z,99207.72
2022-11-21T02:19:33.628Z,99196.91
2022-11-21T02:22:12.541Z,99190.22
2022-11-21T02:24:57.638Z,99183.22
2022-11-21T02:27:24.797Z,99182.00
2022-11-21T02:29:52.374Z,99187.47
2022-11-21T02:32:36.883Z,99195.09
2022-11-21T02:35:05.315Z,99172.44
2022-11-21T02:37:35.501Z,99184.47
2022-11-21T02:40:09.922Z,99189.44
2022-11-21T02:42:42.092Z,99196.03
2022-11-21T02:45:15.694Z,99200.84
2022-11-21T02:47:45.299Z,99200.50
2022-11-21T02:50:15.627Z,99196.47
2022-11-21T02:52:42.873Z,99189.91
2022-11-21T02:55:12.008Z,99189.53
2022-11-21T02:57:40.186Z,99189.94
2022-11-21T03:00:09.477Z,99173.72
2022-11-21T03:02:37.747Z,99197.41
2022-11-21T03:05:09.022Z,99197.03
2022-11-21T03:07:36.583Z,99211.25
2022-11-21T03:10:05.026Z,99218.22
2022-11-21T03:12:32.207Z,99211.53
2022-11-21T03:14:59.608Z,99206.81
2022-11-21T03:17:26.739Z,99215.50
2022-11-21T03:19:54.144Z,99211.94
2022-11-21T03:22:21.296Z,99225.75
2022-11-21T03:24:48.770Z,99243.91
2022-11-21T03:27:15.931Z,99238.72
2022-11-21T03:29:43.431Z,99245.63
2022-11-21T03:32:10.707Z,99231.63
2022-11-21T03:34:38.262Z,99234.88
2022-11-21T03:37:05.385Z,99244.56
2022-11-21T03:39:32.866Z,99226.59
2022-11-21T03:42:00.007Z,99232.09
2022-11-21T03:44:27.642Z,99226.44
2022-11-21T03:46:54.834Z,99229.28
2022-11-21T03:49:22.329Z,99223.91
2022-11-21T03:51:49.514Z,99228.03
2022-11-21T03:54:17.135Z,99219.75
2022-11-21T03:56:44.269Z,99231.34
2022-11-21T03:59:11.693Z,99231.25
2022-11-21T04:01:38.888Z,99223.66
2022-11-21T04:04:06.545Z,99229.59
2022-11-21T04:06:33.782Z,99242.56
2022-11-21T04:09:01.243Z,99238.81
2022-11-21T04:11:28.593Z,99237.00
2022-11-21T04:13:56.026Z,99233.25
2022-11-21T04:16:23.183Z,99240.31
2022-11-21T04:18:51.048Z,99241.47
2022-11-21T04:21:18.163Z,99242.38
2022-11-21T04:23:45.670Z,99247.56
2022-11-21T04:26:12.850Z,99254.81
2022-11-21T04:28:40.406Z,99253.97
2022-11-21T04:31:11.057Z,99250.16
2022-11-21T04:33:39.710Z,99240.41
2022-11-21T04:36:08.418Z,99228.44
2022-11-21T04:38:36.500Z,99238.44
2022-11-21T04:41:04.851Z,99237.84
2022-11-21T04:43:32.387Z,99229.84
2022-11-21T04:45:59.555Z,99225.91
2022-11-21T04:48:27.001Z,99231.75
2022-11-21T04:50:54.170Z,99226.38
2022-11-21T04:53:21.588Z,99218.56
2022-11-21T04:55:49.057Z,99221.94
2022-11-21T04:58:16.519Z,99211.97
2022-11-21T05:00:43.714Z,99212.44
2022-11-21T05:03:11.300Z,99217.78
2022-11-21T05:05:38.707Z,99204.25
2022-11-21T05:08:06.164Z,99209.00
2022-11-21T05:10:53.341Z,99198.03
2022-11-21T05:13:23.607Z,99214.69
2022-11-21T05:15:56.564Z,99213.00
2022-11-21T05:18:24.293Z,99205.84
2022-11-21T05:20:51.428Z,99197.16
2022-11-21T05:23:18.863Z,99213.28
2022-11-21T05:25:46.007Z,99224.56
2022-11-21T05:28:13.506Z,99223.81
2022-11-21T05:30:40.692Z,99221.94
2022-11-21T05:33:08.143Z,99214.00
2022-11-21T05:35:40.129Z,99218.38
2022-11-21T05:38:10.223Z,99225.34
2022-11-21T05:40:37.857Z,99210.25
2022-11-21T05:43:24.115Z,99213.38
2022-11-21T05:45:51.263Z,99207.19
2022-11-21T05:48:19.031Z,99201.69
2022-11-21T05:50:52.092Z,99210.94
2022-11-21T05:53:19.660Z,99199.34
2022-11-21T05:55:46.925Z,99212.97
2022-11-21T05:58:14.751Z,99219.28
2022-11-21T06:00:42.197Z,99222.09
2022-11-21T06:03:30.900Z,99221.81
2022-11-21T06:06:16.953Z,99211.09
2022-11-21T06:08:47.483Z,99228.53
2022-11-21T06:11:16.725Z,99234.75
2022-11-21T06:13:44.630Z,99218.56
2022-11-21T06:16:16.885Z,99218.84
2022-11-21T06:18:46.864Z,99220.44
2022-11-21T06:21:22.370Z,99222.31
2022-11-21T06:23:55.215Z,99236.63
2022-11-21T06:26:25.033Z,99233.28
2022-11-21T06:28:52.674Z,99234.31
2022-11-21T06:31:22.429Z,99224.59
2022-11-21T06:33:57.905Z,99242.38
2022-11-21T06:36:25.781Z,99237.56
2022-11-21T06:38:55.044Z,99247.00
2022-11-21T06:41:24.674Z,99241.88
2022-11-21T06:43:52.793Z,99242.91
2022-11-21T06:46:19.999Z,99241.06
2022-11-21T06:48:47.641Z,99249.63
2022-11-21T06:51:22.951Z,99255.41
2022-11-21T06:53:56.032Z,99248.09
2022-11-21T06:56:28.209Z,99247.88
2022-11-21T06:58:55.917Z,99251.16
2022-11-21T07:01:23.960Z,99250.63
2022-11-21T07:03:51.928Z,99258.28
2022-11-21T07:06:19.397Z,99257.91
2022-11-21T07:08:52.469Z,99253.91
2022-11-21T07:11:27.318Z,99251.38
2022-11-21T07:13:54.874Z,99253.84
2022-11-21T07:16:22.099Z,99247.47
2022-11-21T07:18:49.503Z,99259.09
2022-11-21T07:21:16.894Z,99263.56
2022-11-21T07:23:44.344Z,99252.88
2022-11-21T07:26:11.571Z,99264.50
2022-11-21T07:28:39.158Z,99262.34
2022-11-21T07:31:12.884Z,99257.75
2022-11-21T07:33:43.437Z,99261.31
2022-11-21T07:36:13.920Z,99261.97
2022-11-21T07:38:42.102Z,99254.63
2022-11-21T07:41:09.933Z,99246.03
2022-11-21T07:43:37.390Z,99250.06
2022-11-21T07:46:04.754Z,99255.75
2022-11-21T07:48:32.205Z,99247.09
2022-11-21T07:50:59.367Z,99244.72
2022-11-21T07:53:26.844Z,99252.56
2022-11-21T07:55:54.036Z,99232.91
2022-11-21T07:58:21.445Z,99250.28
2022-11-21T08:00:48.593Z,99261.97
2022-11-21T08:03:16.045Z,99263.84
2022-11-21T08:05:44.309Z,99247.38
2022-11-21T08:08:13.566Z,99258.38
2022-11-21T08:10:45.666Z,99247.34
2022-11-21T08:13:14.328Z,99246.22
2022-11-21T08:15:41.567Z,99250.00
2022-11-21T08:18:19.193Z,99237.84
2022-11-21T08:20:46.996Z,99251.13
2022-11-21T08:23:14.512Z,99246.19
2022-11-21T08:25:42.879Z,99245.50
2022-11-21T08:28:11.859Z,99261.06
2022-11-21T08:30:40.005Z,99256.06
2022-11-21T08:33:08.058Z,99256.94
2022-11-21T08:35:37.894Z,99260.50
2022-11-21T08:38:06.066Z,99258.63
2022-11-21T08:40:34.154Z,99262.69
2022-11-21T08:43:07.109Z,99244.13
2022-11-21T08:45:35.928Z,99246.50
2022-11-21T08:48:03.703Z,99257.66
2022-11-21T08:50:32.190Z,99263.50
2022-11-21T08:53:01.784Z,99261.81
2022-11-21T08:55:30.205Z,99265.94
2022-11-21T08:57:58.538Z,99269.38
2022-11-21T09:00:26.476Z,99277.72
2022-11-21T09:02:53.952Z,99270.22
2022-11-21T09:05:21.120Z,99286.13
2022-11-21T09:07:48.790Z,99273.94
2022-11-21T09:10:16.249Z,99282.16
2022-11-21T09:12:43.915Z,99283.00
2022-11-21T09:15:29.980Z,99278.63
2022-11-21T09:18:04.251Z,99274.84
2022-11-21T09:20:34.194Z,99273.31
2022-11-21T09:23:09.913Z,99288.63
2022-11-21T09:25:37.150Z,99291.50
2022-11-21T09:28:07.231Z,99279.63
2022-11-21T09:30:35.208Z,99285.41
2022-11-21T09:33:04.458Z,99286.69
2022-11-21T09:35:32.288Z,99283.78
2022-11-21T09:38:00.906Z,99282.38
2022-11-21T09:40:31.192Z,99293.91
2022-11-21T09:43:07.719Z,99297.59
2022-11-21T09:45:44.407Z,99291.59
2022-11-21T09:48:15.919Z,99300.13
2022-11-21T09:50:52.275Z,99292.66
2022-11-21T09:53:37.853Z,99304.53
2022-11-21T09:56:07.139Z,99301.31
2022-11-21T09:58:42.449Z,99306.13
2022-11-21T10:01:14.025Z,99309.59
2022-11-21T10:03:43.770Z,99317.66
2022-11-21T10:06:26.694Z,99300.84
2022-11-21T10:09:14.167Z,99313.75
2022-11-21T10:12:37.074Z,99308.38
2022-11-21T10:15:38.128Z,99308.22
2022-11-21T10:18:33.711Z,99308.75
2022-11-21T10:21:16.036Z,99304.13
2022-11-21T10:23:58.088Z,99303.91
2022-11-21T10:26:44.109Z,99298.06
2022-11-21T10:29:27.659Z,99296.38
2022-11-21T10:31:58.606Z,99289.06
2022-11-21T10:34:31.029Z,99296.19
2022-11-21T10:37:27.430Z,99309.56
2022-11-21T10:39:55.966Z,99295.72
2022-11-21T10:42:36.400Z,99301.75
2022-11-21T10:45:17.302Z,99306.34
2022-11-21T10:47:47.649Z,99290.19
2022-11-21T10:50:51.827Z,99297.25
2022-11-21T10:53:40.840Z,99300.88
2022-11-21T10:56:12.851Z,99294.47
2022-11-21T10:58:43.603Z,99284.56
2022-11-21T11:01:48.055Z,99305.31
2022-11-21T11:04:43.995Z,99307.38
2022-11-21T11:07:27.055Z,99292.28
2022-11-21T11:10:26.886Z,99308.44
2022-11-21T11:13:38.799Z,99304.25
2022-11-21T11:16:10.926Z,99306.88
2022-11-21T11:18:47.116Z,99296.97
2022-11-21T11:21:18.888Z,99291.78
2022-11-21T11:23:47.424Z,99295.00
2022-11-21T11:26:22.729Z,99304.25
2022-11-21T11:28:50.157Z,99302.75
2022-11-21T11:31:17.612Z,99304.53
2022-11-21T11:33:47.720Z,99309.69
2022-11-21T11:36:39.734Z,99307.88
2022-11-21T11:39:51.827Z,99302.47
2022-11-21T11:42:44.982Z,99304.34
2022-11-21T11:45:30.790Z,99317.94
2022-11-21T11:48:12.449Z,99311.66
2022-11-21T11:50:49.822Z,99310.78
2022-11-21T11:53:21.155Z,99306.53
2022-11-21T11:56:17.004Z,99311.56
2022-11-21T11:58:53.654Z,99306.81
2022-11-21T12:01:39.867Z,99307.91
2022-11-21T12:04:21.402Z,99298.22
2022-11-21T12:10:14.264Z,99287.31
2022-11-21T12:12:49.614Z,99277.53
2022-11-21T12:15:41.781Z,99292.13
2022-11-21T12:18:21.021Z,99288.09
2022-11-21T12:20:51.457Z,99287.22
2022-11-21T12:23:20.052Z,99292.41
2022-11-21T12:26:33.723Z,99301.59
2022-11-21T12:29:21.397Z,99299.88
2022-11-21T12:31:57.699Z,99302.59
2022-11-21T12:34:42.662Z,99298.25
2022-11-21T12:37:41.092Z,99300.13
2022-11-21T12:40:29.549Z,99309.06
2022-11-21T12:43:29.765Z,99295.16
2022-11-21T12:46:19.270Z,99291.94
2022-11-21T12:49:14.596Z,99304.00
2022-11-21T12:52:31.005Z,99293.50
2022-11-21T12:55:04.390Z,99298.13
2022-11-21T12:58:05.161Z,99291.03
2022-11-21T13:00:44.794Z,99305.25
2022-11-21T13:03:41.785Z,99300.28
2022-11-21T13:06:22.597Z,99295.91
2022-11-21T13:08:52.981Z,99289.41
2022-11-21T13:12:00.531Z,99296.75
2022-11-21T13:14:37.553Z,99299.03
2022-11-21T13:17:11.030Z,99285.97
2022-11-21T13:19:56.822Z,99287.47
2022-11-21T13:22:36.528Z,99302.97
2022-11-21T13:25:10.756Z,99292.84
2022-11-21T13:27:39.985Z,99287.34
2022-11-21T13:30:07.157Z,99298.06
2022-11-21T13:32:46.285Z,99284.22
2022-11-21T13:35:16.438Z,99298.13
2022-11-21T13:38:08.487Z,99307.31
2022-11-21T13:40:37.888Z,99298.69
2022-11-21T13:43:35.519Z,99303.09
2022-11-21T13:46:03.444Z,99297.66
2022-11-21T13:48:31.262Z,99302.91
2022-11-21T13:51:19.758Z,99296.81
2022-11-21T13:54:18.252Z,99300.91
2022-11-21T13:57:11.162Z,99297.19
2022-11-21T13:59:49.831Z,99309.56
2022-11-21T14:02:28.881Z,99309.06
2022-11-21T14:05:37.945Z,99311.69
2022-11-21T14:08:19.409Z,99300.81
2022-11-21T14:10:48.451Z,99312.56
2022-11-21T14:13:31.381Z,99308.94
2022-11-21T14:16:10.994Z,99315.25
2022-11-21T14:18:39.061Z,99323.56
2022-11-21T14:21:08.358Z,99309.06
2022-11-21T14:23:35.518Z,99312.03
2022-11-21T14:26:04.383Z,99316.50
2022-11-21T14:28:34.588Z,99306.56
2022-11-21T14:31:10.546Z,99317.13
2022-11-21T14:33:39.529Z,99320.53
2022-11-21T14:36:21.127Z,99324.59
2022-11-21T14:39:13.741Z,99319.69
2022-11-21T14:41:39.781Z,99323.81
2022-11-21T14:44:16.179Z,99327.66
2022-11-21T14:46:45.339Z,99334.72
2022-11-21T14:49:21.709Z,99329.16
2022-11-21T14:52:08.337Z,99313.69
2022-11-21T14:55:06.331Z,99318.44
2022-11-21T14:57:38.877Z,99320.81
2022-11-21T15:00:07.282Z,99313.88
2022-11-21T15:02:35.061Z,99299.59
2022-11-21T15:05:07.910Z,99314.56
2022-11-21T15:07:47.748Z,99312.03
2022-11-21T15:10:33.479Z,99300.19
2022-11-21T15:13:07.543Z,99299.19
2022-11-21T15:15:44.567Z,99313.34
2022-11-21T15:18:33.325Z,99305.06
2022-11-21T15:21:04.007Z,99291.00
2022-11-21T15:23:33.015Z,99311.00
2022-11-21T15:26:01.779Z,99292.53
2022-11-21T15:28:30.700Z,99296.75
2022-11-21T15:31:21.024Z,99311.69
2022-11-21T15:37:24.517Z,99308.69
2022-11-21T15:39:54.187Z,99313.88
2022-11-21T15:42:33.706Z,99315.50
2022-11-21T15:45:27.525Z,99309.81
2022-11-21T15:47:56.001Z,99297.09
2022-11-21T15:50:24.991Z,99303.38
2022-11-21T15:52:53.621Z,99312.91
2022-11-21T15:55:29.349Z,99312.09
2022-11-21T15:57:56.626Z,99312.69
2022-11-21T16:00:24.397Z,99319.19
2022-11-21T16:02:51.853Z,99315.81
2022-11-21T16:05:19.339Z,99317.34
2022-11-21T16:07:48.496Z,99304.41
2022-11-21T16:10:21.280Z,99312.72
2022-11-21T16:12:53.279Z,99295.72
2022-11-21T16:15:21.060Z,99308.69
2022-11-21T16:17:48.254Z,99297.00
2022-11-21T16:20:16.045Z,99285.88
2022-11-21T16:22:47.828Z,99292.66
2022-11-21T16:25:16.224Z,99295.31
2022-11-21T16:27:43.457Z,99295.13
2022-11-21T16:30:11.287Z,99291.88
2022-11-21T16:32:38.523Z,99275.56
2022-11-21T16:35:06.428Z,99285.59
2022-11-21T16:37:34.272Z,99287.09
2022-11-21T16:40:01.767Z,99280.16
2022-11-21T16:42:31.341Z,99287.66
2022-11-21T16:44:58.882Z,99291.53
2022-11-21T16:47:26.096Z,99294.47
2022-11-21T16:49:53.648Z,99291.72
2022-11-21T16:52:20.851Z,99276.59
2022-11-21T16:54:48.268Z,99279.06
2022-11-21T16:57:15.379Z,99286.97
2022-11-21T16:59:42.841Z,99283.38
2022-11-21T17:02:11.069Z,99274.41
2022-11-21T17:04:38.526Z,99282.75
2022-11-21T17:07:05.850Z,99270.69
2022-11-21T17:09:33.372Z,99268.84
2022-11-21T17:12:00.574Z,99278.16
2022-11-21T17:14:28.267Z,99284.59
2022-11-21T17:16:55.767Z,99278.81
2022-11-21T17:19:23.342Z,99272.19
2022-11-21T17:21:50.504Z,99273.81
2022-11-21T17:24:18.512Z,99284.16
2022-11-21T17:26:45.777Z,99285.28
2022-11-21T17:29:13.241Z,99286.47
2022-11-21T17:31:41.919Z,99283.44
2022-11-21T17:34:09.373Z,99280.94
2022-11-21T17:36:36.507Z,99282.25
2022-11-21T17:39:04.064Z,99280.44
2022-11-21T17:41:31.259Z,99280.09
2022-11-21T17:43:59.820Z,99282.13
2022-11-21T17:46:28.439Z,99269.00
2022-11-21T17:48:58.770Z,99282.22
2022-11-21T17:51:33.480Z,99274.59
2022-11-21T17:54:01.955Z,99288.50
2022-11-21T17:56:31.431Z,99284.56
2022-11-21T17:58:59.200Z,99278.13
2022-11-21T18:01:27.075Z,99281.84
2022-11-21T18:04:03.397Z,99273.22
2022-11-21T18:06:39.029Z,99281.84
2022-11-21T18:09:08.128Z,99280.69
2022-11-21T18:11:39.934Z,99277.81
2022-11-21T18:14:10.174Z,99285.59
2022-11-21T18:16:39.577Z,99271.88
2022-11-21T18:19:11.274Z,99278.25
2022-11-21T18:21:38.581Z,99278.81
2022-11-21T18:24:06.466Z,99263.38
2022-11-21T18:26:36.698Z,99276.25
2022-11-21T18:29:35.298Z,99270.00
2022-11-21T18:31:54.217Z,99278.50
2022-11-21T18:34:21.668Z,99279.88
2022-11-21T18:36:48.887Z,99278.69
2022-11-21T18:39:16.393Z,99270.34
2022-11-21T18:41:44.117Z,99290.13
2022-11-21T18:44:17.042Z,99287.88
2022-11-21T18:46:48.154Z,99279.19
2022-11-21T18:49:15.626Z,99293.28
2022-11-21T18:51:42.772Z,99292.91
2022-11-21T18:54:11.233Z,99289.94
2022-11-21T18:56:39.640Z,99298.16
2022-11-21T18:59:07.457Z,99285.94
2022-11-21T19:01:36.249Z,99300.09
2022-11-21T19:04:04.205Z,99295.88
2022-11-21T19:06:31.942Z,99298.66
2022-11-21T19:08:59.532Z,99298.16
2022-11-21T19:11:29.056Z,99296.44
2022-11-21T19:13:57.963Z,99290.34
2022-11-21T19:16:27.362Z,99293.25
2022-11-21T19:21:43.083Z,99294.31
2022-11-21T19:24:13.412Z,99293.50
2022-11-21T19:26:41.958Z,99293.91
2022-11-21T19:29:10.120Z,99292.81
2022-11-21T19:31:44.207Z,99302.22
2022-11-21T19:34:16.250Z,99290.91
2022-11-21T19:36:44.992Z,99282.03
2022-11-21T19:39:12.844Z,99297.56
2022-11-21T19:41:40.294Z,99286.44
2022-11-21T19:44:08.000Z,99288.81
2022-11-21T19:46:38.385Z,99287.13
2022-11-21T19:49:07.911Z,99280.56
2022-11-21T19:51:40.943Z,99290.69
2022-11-21T19:54:11.352Z,99285.50
2022-11-21T19:56:39.180Z,99297.91
2022-11-21T19:59:06.886Z,99300.69
2022-11-21T20:01:34.925Z,99300.44
2022-11-21T20:04:04.837Z,99299.06
2022-11-21T20:06:37.852Z,99298.00
2022-11-21T20:09:11.132Z,99283.66
2022-11-21T20:11:43.475Z,99293.25
2022-11-21T20:14:18.037Z,99308.00
2022-11-21T20:16:49.407Z,99306.81
2022-11-21T20:19:18.923Z,99302.00
2022-11-21T20:21:46.942Z,99307.41
2022-11-21T20:24:14.919Z,99313.19
2022-11-21T20:26:44.065Z,99311.38
2022-11-21T20:29:13.762Z,99309.06
2022-11-21T20:31:41.464Z,99317.94
2022-11-21T20:34:12.893Z,99306.03
2022-11-21T20:36:41.635Z,99321.56
2022-11-21T20:39:14.728Z,99319.97
2022-11-21T20:41:42.029Z,99324.88
2022-11-21T20:45:20.328Z,99325.16
2022-11-21T20:47:16.728Z,99332.03
2022-11-21T20:49:44.160Z,99338.91
2022-11-21T20:54:58.832Z,99334.66
2022-11-21T20:57:27.634Z,99328.09
2022-11-21T20:59:55.180Z,99339.06
2022-11-21T21:02:22.355Z,99337.88
2022-11-21T21:04:49.857Z,99336.41
2022-11-21T21:07:17.163Z,99330.34
2022-11-21T21:09:44.658Z,99332.34
2022-11-21T21:12:11.817Z,99328.34
2022-11-21T21:14:39.307Z,99334.31
2022-11-21T21:17:06.455Z,99341.00
2022-11-21T21:19:33.909Z,99344.56
2022-11-21T21:22:01.227Z,99343.03
2022-11-21T21:24:28.833Z,99334.19
2022-11-21T21:26:56.106Z,99324.84
2022-11-21T21:29:23.564Z,99334.19
2022-11-21T21:31:52.310Z,99345.31
2022-11-21T21:34:21.988Z,99344.22
2022-11-21T21:36:50.819Z,99342.88
2022-11-21T21:39:18.432Z,99346.28
2022-11-21T21:41:46.697Z,99337.59
2022-11-21T21:44:15.728Z,99334.91
2022-11-21T21:46:43.232Z,99336.44
2022-11-21T21:49:11.485Z,99330.56
2022-11-21T21:51:38.914Z,99330.41
2022-11-21T21:54:09.204Z,99321.53
2022-11-21T21:56:36.385Z,99325.59
2022-11-21T21:59:03.911Z,99334.66
2022-11-21T22:01:32.544Z,99326.88
2022-11-21T22:04:04.765Z,99329.88
2022-11-21T22:06:34.937Z,99321.22
2022-11-21T22:09:03.572Z,99318.78
2022-11-21T22:11:33.082Z,99306.97
2022-11-21T22:14:06.211Z,99312.06
2022-11-21T22:16:33.655Z,99312.81
2022-11-21T22:19:01.104Z,99303.41
2022-11-21T22:21:32.634Z,99309.59
2022-11-21T22:24:24.353Z,99308.84
2022-11-21T22:26:49.469Z,99302.31
2022-11-21T22:29:17.236Z,99307.31
2022-11-21T22:31:44.452Z,99318.69
2022-11-21T22:34:14.070Z,99317.25
2022-11-21T22:36:42.175Z,99314.28
2022-11-21T22:39:09.680Z,99311.16
2022-11-21T22:41:36.931Z,99312.34
2022-11-21T22:44:04.498Z,99315.91
2022-11-21T22:46:31.735Z,99318.00
2022-11-21T22:48:59.404Z,99318.28
2022-11-21T22:51:29.663Z,99308.50
2022-11-21T22:53:57.579Z,99308.34
2022-11-21T22:56:25.590Z,99312.69
2022-11-21T22:58:53.476Z,99305.28
2022-11-21T23:01:23.550Z,99313.88
2022-11-21T23:03:51.763Z,99317.41
2022-11-21T23:06:21.853Z,99322.00
2022-11-21T23:08:49.788Z,99313.59
2022-11-21T23:11:19.939Z,99324.03
2022-11-21T23:13:48.037Z,99322.25
2022-11-21T23:16:16.387Z,99321.47
2022-11-21T23:18:44.565Z,99318.78
2022-11-21T23:21:13.015Z,99326.94
2022-11-21T23:23:41.144Z,99332.38
2022-11-21T23:26:08.396Z,99325.59
2022-11-21T23:28:36.408Z,99326.28
2022-11-21T23:31:03.634Z,99326.75
2022-11-21T23:33:31.202Z,99319.22
2022-11-21T23:35:58.442Z,99318.53
2022-11-21T23:38:25.894Z,99305.28
2022-11-21T23:40:53.179Z,99315.16
2022-11-21T23:43:20.752Z,99316.06
2022-11-21T23:45:55.007Z,99307.66
2022-11-21T23:48:24.290Z,99303.34
2022-11-21T23:50:51.717Z,99307.94
2022-11-21T23:53:20.532Z,99300.88
2022-11-21T23:55:48.502Z,99307.25
2022-11-21T23:58:16.367Z,99305.69
